SHT13Z EGLL-EGNT
Flight info
| Callsign | SHT13Z |
|---|---|
| Flight time | 0h 39m |
| Altitude | 26000 |
| Route | ULTIB1J ULTIB T420 AKUPA UY250 RIMTO RIMTO1N |
| Aircraft | A320/M-SDE3FGHIJ1RWXY/S |
Departure
| Time | 2026-04-30 18:59 |
|---|---|
| Airport | London Heathrow Airport (EGLL) |
Arrival
| Time | 2026-04-30 19:38 |
|---|---|
| Airport | Newcastle International Airport (EGNT) |
| Time | Latitude | Longitude | Altitude | Speed | Heading |
|---|---|---|---|---|---|
| 2026-04-30 18:37 | 51.47232 | -0.48589 | 87 ft | 0 kts | 270° |
| 2026-04-30 18:49 | 51.47232 | -0.48583 | 91 ft | 3 kts | 269° |
| 2026-04-30 18:49 | 51.47234 | -0.48540 | 89 ft | 4 kts | 259° |
| 2026-04-30 18:50 | 51.47241 | -0.48500 | 88 ft | 4 kts | 237° |
| 2026-04-30 18:50 | 51.47258 | -0.48476 | 89 ft | 2 kts | 180° |
| 2026-04-30 18:50 | 51.47263 | -0.48476 | 88 ft | 0 kts | 179° |
| 2026-04-30 18:54 | 51.47254 | -0.48476 | 87 ft | 5 kts | 180° |
| 2026-04-30 18:54 | 51.47184 | -0.48475 | 87 ft | 15 kts | 179° |
| 2026-04-30 18:55 | 51.47053 | -0.48473 | 87 ft | 21 kts | 179° |
| 2026-04-30 18:55 | 51.46730 | -0.48471 | 87 ft | 25 kts | 179° |
| 2026-04-30 18:55 | 51.46609 | -0.48470 | 87 ft | 10 kts | 180° |
| 2026-04-30 18:56 | 51.46590 | -0.48470 | 88 ft | 0 kts | 180° |
| 2026-04-30 18:56 | 51.46585 | -0.48470 | 88 ft | 2 kts | 180° |
| 2026-04-30 18:57 | 51.46519 | -0.48469 | 89 ft | 8 kts | 177° |
| 2026-04-30 18:57 | 51.46478 | -0.48394 | 89 ft | 8 kts | 96° |
| 2026-04-30 18:57 | 51.46478 | -0.48390 | 89 ft | 0 kts | 94° |
| 2026-04-30 18:58 | 51.46479 | -0.47991 | 87 ft | 71 kts | 90° |
| 2026-04-30 18:58 | 51.46483 | -0.46870 | 91 ft | 126 kts | 89° |
| 2026-04-30 18:58 | 51.46477 | -0.45288 | 353 ft | 146 kts | 91° |
| 2026-04-30 18:59 | 51.46474 | -0.42291 | 1685 ft | 123 kts | 89° |
| 2026-04-30 19:00 | 51.48168 | -0.37664 | 2148 ft | 210 kts | 57° |
| 2026-04-30 19:00 | 51.49137 | -0.35735 | 2558 ft | 234 kts | 57° |
| 2026-04-30 19:00 | 51.51322 | -0.31378 | 3886 ft | 262 kts | 56° |
| 2026-04-30 19:01 | 51.53113 | -0.26206 | 5472 ft | 272 kts | 72° |
| 2026-04-30 19:01 | 51.54206 | -0.23673 | 6352 ft | 284 kts | 41° |
| 2026-04-30 19:02 | 51.58039 | -0.22252 | 8024 ft | 299 kts | 355° |
| 2026-04-30 19:02 | 51.62089 | -0.23983 | 9746 ft | 308 kts | 329° |
| 2026-04-30 19:03 | 51.65801 | -0.27876 | 10709 ft | 339 kts | 329° |
| 2026-04-30 19:03 | 51.70090 | -0.31884 | 11540 ft | 366 kts | 329° |
| 2026-04-30 19:04 | 51.74507 | -0.36063 | 12896 ft | 374 kts | 329° |
| 2026-04-30 19:04 | 51.79024 | -0.40427 | 14167 ft | 382 kts | 329° |
| 2026-04-30 19:05 | 51.83622 | -0.44900 | 15377 ft | 389 kts | 329° |
| 2026-04-30 19:05 | 51.88290 | -0.49430 | 16577 ft | 395 kts | 329° |
| 2026-04-30 19:06 | 51.93003 | -0.54018 | 17783 ft | 401 kts | 329° |
| 2026-04-30 19:06 | 51.95401 | -0.56357 | 18396 ft | 404 kts | 329° |
| 2026-04-30 19:06 | 52.00253 | -0.61108 | 19495 ft | 411 kts | 328° |
| 2026-04-30 19:07 | 52.05193 | -0.65962 | 20570 ft | 419 kts | 328° |
| 2026-04-30 19:07 | 52.07704 | -0.68431 | 21085 ft | 423 kts | 328° |
| 2026-04-30 19:08 | 52.12785 | -0.73436 | 22091 ft | 431 kts | 328° |
| 2026-04-30 19:08 | 52.17937 | -0.78514 | 23074 ft | 438 kts | 328° |
| 2026-04-30 19:08 | 52.20583 | -0.81121 | 23552 ft | 442 kts | 328° |
| 2026-04-30 19:09 | 52.25853 | -0.86329 | 24375 ft | 448 kts | 328° |
| 2026-04-30 19:09 | 52.28527 | -0.88983 | 24792 ft | 451 kts | 328° |
| 2026-04-30 19:09 | 52.31209 | -0.91650 | 25178 ft | 453 kts | 328° |
| 2026-04-30 19:10 | 52.36630 | -0.97054 | 25964 ft | 458 kts | 328° |
| 2026-04-30 19:10 | 52.42066 | -1.02506 | 26213 ft | 458 kts | 328° |
| 2026-04-30 19:11 | 52.44814 | -1.05147 | 26166 ft | 458 kts | 333° |
| 2026-04-30 19:11 | 52.50849 | -1.08315 | 26147 ft | 456 kts | 353° |
| 2026-04-30 19:11 | 52.53966 | -1.08686 | 26138 ft | 455 kts | 2° |
| 2026-04-30 19:12 | 52.57121 | -1.08461 | 26135 ft | 454 kts | 5° |
| 2026-04-30 19:12 | 52.60290 | -1.08215 | 26131 ft | 454 kts | 4° |
| 2026-04-30 19:12 | 52.63442 | -1.07982 | 26127 ft | 454 kts | 4° |
| 2026-04-30 19:13 | 52.69758 | -1.07527 | 26135 ft | 454 kts | 4° |
| 2026-04-30 19:13 | 52.76076 | -1.07799 | 26215 ft | 456 kts | 351° |
| 2026-04-30 19:13 | 52.79153 | -1.08731 | 26214 ft | 456 kts | 350° |
| 2026-04-30 19:14 | 52.82267 | -1.09684 | 26213 ft | 456 kts | 350° |
| 2026-04-30 19:14 | 52.85379 | -1.10635 | 26212 ft | 455 kts | 350° |
| 2026-04-30 19:14 | 52.88499 | -1.11583 | 26212 ft | 455 kts | 350° |
| 2026-04-30 19:14 | 52.91615 | -1.12529 | 26208 ft | 455 kts | 350° |
| 2026-04-30 19:15 | 52.94737 | -1.13476 | 26210 ft | 455 kts | 350° |
| 2026-04-30 19:15 | 53.00966 | -1.15373 | 26211 ft | 455 kts | 350° |
| 2026-04-30 19:15 | 53.04083 | -1.16324 | 26211 ft | 455 kts | 350° |
| 2026-04-30 19:16 | 53.07204 | -1.17295 | 26208 ft | 456 kts | 349° |
| 2026-04-30 19:16 | 53.10261 | -1.18435 | 26207 ft | 456 kts | 347° |
| 2026-04-30 19:16 | 53.16480 | -1.20531 | 26220 ft | 456 kts | 350° |
| 2026-04-30 19:17 | 53.19646 | -1.21449 | 26224 ft | 456 kts | 351° |
| 2026-04-30 19:17 | 53.25861 | -1.23195 | 26230 ft | 456 kts | 351° |
| 2026-04-30 19:17 | 53.28990 | -1.24098 | 26231 ft | 456 kts | 350° |
| 2026-04-30 19:18 | 53.34177 | -1.25652 | 26233 ft | 456 kts | 350° |
| 2026-04-30 19:18 | 53.38357 | -1.26938 | 26237 ft | 456 kts | 350° |
| 2026-04-30 19:18 | 53.41479 | -1.27927 | 26240 ft | 457 kts | 347° |
| 2026-04-30 19:19 | 53.44514 | -1.29454 | 26240 ft | 456 kts | 342° |
| 2026-04-30 19:19 | 53.47551 | -1.31035 | 26241 ft | 457 kts | 343° |
| 2026-04-30 19:19 | 53.53620 | -1.34007 | 26246 ft | 457 kts | 343° |
| 2026-04-30 19:20 | 53.56663 | -1.35493 | 26247 ft | 457 kts | 343° |
| 2026-04-30 19:20 | 53.59606 | -1.36964 | 26247 ft | 457 kts | 343° |
| 2026-04-30 19:20 | 53.65680 | -1.40096 | 26244 ft | 456 kts | 342° |
| 2026-04-30 19:21 | 53.68712 | -1.41689 | 26244 ft | 456 kts | 342° |
| 2026-04-30 19:21 | 53.74397 | -1.46010 | 25845 ft | 443 kts | 327° |
| 2026-04-30 19:22 | 53.79626 | -1.51305 | 25358 ft | 439 kts | 327° |
| 2026-04-30 19:22 | 53.87436 | -1.59282 | 24640 ft | 435 kts | 327° |
| 2026-04-30 19:23 | 53.95039 | -1.67095 | 23953 ft | 416 kts | 327° |
| 2026-04-30 19:24 | 53.99870 | -1.72071 | 23432 ft | 401 kts | 327° |
| 2026-04-30 19:24 | 54.02235 | -1.74511 | 23184 ft | 394 kts | 327° |
| 2026-04-30 19:24 | 54.06848 | -1.79289 | 22476 ft | 385 kts | 327° |
| 2026-04-30 19:25 | 54.14481 | -1.85071 | 20799 ft | 409 kts | 351° |
| 2026-04-30 19:26 | 54.20086 | -1.84840 | 19728 ft | 406 kts | 12° |
| 2026-04-30 19:26 | 54.25519 | -1.83119 | 18678 ft | 384 kts | 12° |
| 2026-04-30 19:26 | 54.28112 | -1.82311 | 18113 ft | 372 kts | 12° |
| 2026-04-30 19:27 | 54.33068 | -1.80774 | 16964 ft | 353 kts | 12° |
| 2026-04-30 19:27 | 54.37801 | -1.79292 | 15861 ft | 341 kts | 13° |
| 2026-04-30 19:28 | 54.40122 | -1.78559 | 15320 ft | 338 kts | 12° |
| 2026-04-30 19:28 | 54.44702 | -1.77103 | 14278 ft | 335 kts | 13° |
| 2026-04-30 19:29 | 54.49261 | -1.75641 | 13157 ft | 331 kts | 13° |
| 2026-04-30 19:29 | 54.51515 | -1.74918 | 12605 ft | 328 kts | 13° |
| 2026-04-30 19:30 | 54.58182 | -1.72815 | 10964 ft | 321 kts | 12° |
| 2026-04-30 19:30 | 54.62518 | -1.71441 | 9916 ft | 321 kts | 12° |
| 2026-04-30 19:31 | 54.66790 | -1.70071 | 9393 ft | 298 kts | 12° |
| 2026-04-30 19:31 | 54.68814 | -1.69597 | 9031 ft | 290 kts | 1° |
| 2026-04-30 19:31 | 54.72547 | -1.71418 | 8266 ft | 276 kts | 330° |
| 2026-04-30 19:32 | 54.74243 | -1.72961 | 7892 ft | 274 kts | 330° |
| 2026-04-30 19:32 | 54.75889 | -1.74448 | 7528 ft | 267 kts | 331° |
| 2026-04-30 19:32 | 54.77475 | -1.75879 | 7180 ft | 261 kts | 331° |
| 2026-04-30 19:32 | 54.79075 | -1.77323 | 6801 ft | 257 kts | 331° |
| 2026-04-30 19:33 | 54.80674 | -1.78772 | 6315 ft | 263 kts | 331° |
| 2026-04-30 19:33 | 54.82312 | -1.80263 | 5912 ft | 268 kts | 331° |
| 2026-04-30 19:33 | 54.83973 | -1.81778 | 5516 ft | 272 kts | 331° |
| 2026-04-30 19:33 | 54.85654 | -1.83310 | 5156 ft | 274 kts | 331° |
| 2026-04-30 19:34 | 54.87325 | -1.84829 | 4761 ft | 268 kts | 331° |
| 2026-04-30 19:34 | 54.88969 | -1.86326 | 4260 ft | 266 kts | 332° |
| 2026-04-30 19:34 | 54.92214 | -1.89235 | 3217 ft | 264 kts | 338° |
| 2026-04-30 19:35 | 54.93963 | -1.89932 | 2947 ft | 249 kts | 359° |
| 2026-04-30 19:35 | 54.95613 | -1.89736 | 2828 ft | 229 kts | 16° |
| 2026-04-30 19:35 | 54.97058 | -1.88870 | 2704 ft | 214 kts | 32° |
| 2026-04-30 19:35 | 54.98271 | -1.87494 | 2463 ft | 204 kts | 47° |
| 2026-04-30 19:36 | 54.99211 | -1.85741 | 2225 ft | 193 kts | 62° |
| 2026-04-30 19:36 | 54.99849 | -1.83767 | 1992 ft | 184 kts | 72° |
| 2026-04-30 19:36 | 55.00893 | -1.79876 | 1501 ft | 167 kts | 71° |
| 2026-04-30 19:37 | 55.01363 | -1.78121 | 1285 ft | 155 kts | 70° |
| 2026-04-30 19:37 | 55.01802 | -1.76471 | 1059 ft | 145 kts | 69° |
| 2026-04-30 19:37 | 55.02216 | -1.74924 | 849 ft | 139 kts | 69° |
| 2026-04-30 19:37 | 55.02622 | -1.73390 | 677 ft | 139 kts | 70° |
| 2026-04-30 19:38 | 55.03026 | -1.71862 | 458 ft | 138 kts | 72° |
| 2026-04-30 19:38 | 55.03436 | -1.70348 | 291 ft | 137 kts | 70° |
| 2026-04-30 19:38 | 55.03777 | -1.69021 | 253 ft | 98 kts | 65° |
| 2026-04-30 19:38 | 55.03964 | -1.68400 | 249 ft | 32 kts | 40° |
| 2026-04-30 19:39 | 55.04123 | -1.68220 | 248 ft | 10 kts | 354° |
| 2026-04-30 19:39 | 55.04149 | -1.68290 | 248 ft | 8 kts | 286° |
| 2026-04-30 19:39 | 55.04123 | -1.68418 | 248 ft | 16 kts | 245° |
| 2026-04-30 19:39 | 55.04066 | -1.68631 | 249 ft | 21 kts | 245° |
| 2026-04-30 19:40 | 55.04001 | -1.68875 | 251 ft | 23 kts | 246° |
| 2026-04-30 19:40 | 55.03931 | -1.69140 | 253 ft | 25 kts | 244° |
| 2026-04-30 19:40 | 55.03857 | -1.69421 | 255 ft | 26 kts | 244° |
| 2026-04-30 19:40 | 55.03799 | -1.69707 | 258 ft | 26 kts | 256° |
| 2026-04-30 19:41 | 55.03772 | -1.70030 | 261 ft | 27 kts | 268° |
| 2026-04-30 19:41 | 55.03779 | -1.70282 | 265 ft | 15 kts | 274° |
| 2026-04-30 19:41 | 55.03763 | -1.70412 | 267 ft | 11 kts | 216° |
| 2026-04-30 19:41 | 55.03677 | -1.70435 | 267 ft | 14 kts | 183° |
| 2026-04-30 19:42 | 55.03594 | -1.70520 | 267 ft | 16 kts | 253° |
| 2026-04-30 19:42 | 55.03594 | -1.70696 | 267 ft | 9 kts | 275° |
| 2026-04-30 19:42 | 55.03615 | -1.70785 | 267 ft | 8 kts | 355° |
| 2026-04-30 19:42 | 55.03664 | -1.70779 | 267 ft | 3 kts | 4° |
| 2026-04-30 19:43 | 55.03670 | -1.70778 | 267 ft | 0 kts | 4° |